Archival Weather

Chicago O'Hare International

Chicago, Illinois (KORD)

Report from: Wednesday, January 25, 2023 9:24 AM CST
Current time: Monday, February 6, 2023 12:04 AM CST

Current weather
Weather history
Weather forecast

Present weatherLight snow, mist
Temperature0.6°C (33.1°F)
Wind chill-3.9°C (24.9°F)
Dew point-0.6°C (30.9°F)
Winds 9 kts (4.6 m/s, 10.4 mph) North-Northeast (30°)
Visibility1 mi. (1.6 km)
Clouds Ceiling: Broken clouds 500 ft. (152 m)
Overcast 1,300 ft. (396 m)
Altimeter29.72 in.Hg (1006 mB)
Precipitiation0.01 in. (0 mm)
Relative humidity92 %
Density altitude-1,435 ft. (-438 m)
Remarks Automated weather observing station with precipitation discriminator
Flight conditions Instrument Meteorological Conditions
Raw dataKORD 251524Z 03009KT 1SM R10L/P6000FT -SN BR BKN005 OVC013 01/M01 A2972 RMK AO2 P0001 T00061006
An error has occurred. This application may no longer respond until reloaded. Reload 🗙